メインページ
METAR-TAF:

METAR-TAF

空港 :

調布飛行場

調布, 日本

緯度: 35-40N, 経度: 139-32E, 海抜: 41m

現時点の気象観測

当レポートは23分前の07:00(UTC)に作成
南/南東の風 3kt、から南/南西の間で変化する
気温 25°C
湿度 79%
気圧 1012 hPa
視程10km以上
高度1500ftの雲はほとんどない
高度2500ftの千切れ雲あり

METAR: RJTF 200700Z 16003KT 100V210 9999 FEW015 BKN025 25/21 Q1012

時間: 16:23 (07:23 UTC)


TAF: 見つかりません

4,000以上の空港の気象観測と天気予報(METAR報とTAF報)

利用可能な観測所は地図上に黄色い丸と赤い丸で示す。

丸の上にカーソルを重ねると観測所名を参照できる。

次にクリックすると気象観測と天気予報を参照できる。

マップの切り替え:黒色「×」印の緑ボタンをクリックして拡大、「-」印の緑ボタンをクリックして縮小、緑色の三角印をクリックして隣りの地図に切り替え


METAR-TAF: